Time;durP1;ratioP1;P1;durP2;ratioP2;P2;SDS_P1;SDS_P2;PMS_P1;PMS_P2;Temp;Humidity;BMP_temperature;BMP_pressure;BME280_temperature;BME280_humidity;BME280_pressure;Samples;Min_cycle;Max_cycle;Signal;HPM_P1;HPM_P2
2022/01/27 00:06:31;;;;;;;24.77;8.40;;;2.00;99.90;;;;;;6755251;87;20249;-76
2022/01/27 00:16:39;;;;;;;11.82;4.65;;;2.00;99.90;;;;;;6761146;87;20202;-76
2022/01/27 00:26:40;;;;;;;26.83;9.10;;;2.00;99.90;;;;;;6757106;88;20185;-74
2022/01/27 00:36:40;;;;;;;26.67;9.13;;;1.90;99.90;;;;;;6754105;88;20203;-74
2022/01/27 00:46:42;;;;;;;22.80;7.87;;;2.00;99.90;;;;;;6758837;87;20671;-74
2022/01/27 00:56:54;;;;;;;20.17;7.85;;;2.00;99.90;;;;;;6753237;87;20192;-74
2022/01/27 01:06:55;;;;;;;19.67;7.20;;;2.00;99.90;;;;;;6756019;87;20824;-74
2022/01/27 01:17:11;;;;;;;21.48;6.90;;;2.00;99.90;;;;;;6754246;87;20265;-74
2022/01/27 01:37:37;;;;;;;20.23;7.30;;;2.00;99.90;;;;;;6753935;87;20671;-74
2022/01/27 01:47:38;;;;;;;22.35;7.55;;;2.00;99.90;;;;;;6751189;88;20212;-74
2022/01/27 01:57:38;;;;;;;20.75;7.00;;;2.10;99.90;;;;;;6754237;87;20200;-74
2022/01/27 02:07:58;;;;;;;21.87;7.82;;;2.10;99.90;;;;;;6753522;87;20204;-74
2022/01/27 02:18:01;;;;;;;22.23;7.78;;;2.20;99.90;;;;;;6753767;87;20276;-74
2022/01/27 02:28:02;;;;;;;23.92;8.38;;;2.20;99.90;;;;;;6752936;88;20192;-74
2022/01/27 02:38:03;;;;;;;24.15;8.85;;;2.10;99.90;;;;;;6751889;88;20214;-75
2022/01/27 02:48:03;;;;;;;23.90;8.85;;;2.10;99.90;;;;;;6753364;88;20197;-74
2022/01/27 02:58:04;;;;;;;27.70;8.30;;;2.20;99.90;;;;;;6756123;87;20512;-75
2022/01/27 03:08:05;;;;;;;30.58;8.38;;;2.20;99.90;;;;;;6758989;88;20345;-74
2022/01/27 03:18:06;;;;;;;25.08;8.43;;;2.30;99.90;;;;;;6767386;87;20195;-75
2022/01/27 03:28:09;;;;;;;25.23;7.78;;;2.20;99.90;;;;;;6754216;87;20205;-75
2022/01/27 03:38:10;;;;;;;23.92;7.78;;;2.30;99.90;;;;;;6756696;87;20195;-74
2022/01/27 03:48:10;;;;;;;25.50;8.07;;;2.20;99.90;;;;;;6756277;88;20217;-75
2022/01/27 03:58:11;;;;;;;21.80;8.30;;;2.30;99.90;;;;;;6752247;87;20355;-73
2022/01/27 04:08:13;;;;;;;25.70;8.10;;;2.30;99.90;;;;;;6760637;88;20175;-75
2022/01/27 04:18:14;;;;;;;26.62;8.25;;;2.30;99.90;;;;;;6758256;87;20181;-74
2022/01/27 04:28:21;;;;;;;24.27;8.02;;;2.30;99.90;;;;;;6759234;88;20196;-74
2022/01/27 04:38:27;;;;;;;23.27;8.05;;;2.20;99.90;;;;;;6764569;88;20202;-74
2022/01/27 04:48:34;;;;;;;23.47;8.00;;;2.20;99.90;;;;;;6759431;87;20173;-75
2022/01/27 04:58:35;;;;;;;;;;;2.30;99.90;;;;;;6765093;88;20270;-73
2022/01/27 05:08:35;;;;;;;20.77;7.35;;;2.30;99.90;;;;;;6759247;88;20173;-74
2022/01/27 05:18:36;;;;;;;19.92;7.32;;;2.30;99.90;;;;;;6758605;88;20192;-74
2022/01/27 05:28:36;;;;;;;21.05;7.35;;;2.50;99.90;;;;;;6759507;88;20254;-74
2022/01/27 05:38:38;;;;;;;23.67;8.50;;;2.50;99.90;;;;;;6757556;88;20188;-75
2022/01/27 05:48:38;;;;;;;23.25;8.38;;;2.50;99.90;;;;;;6757877;87;20761;-75
2022/01/27 05:58:39;;;;;;;19.70;7.40;;;2.70;99.90;;;;;;6758253;88;20175;-74
2022/01/27 06:08:39;;;;;;;19.02;7.40;;;2.70;99.90;;;;;;6764468;88;20802;-75
2022/01/27 06:18:41;;;;;;;23.10;8.68;;;2.70;99.90;;;;;;6772830;87;20614;-75
2022/01/27 06:28:41;;;;;;;20.08;8.57;;;2.70;99.90;;;;;;6759210;87;20207;-74
2022/01/27 06:38:42;;;;;;;21.25;7.65;;;2.90;99.90;;;;;;6762889;87;20204;-75
2022/01/27 06:48:42;;;;;;;24.05;8.70;;;3.20;99.90;;;;;;6761713;87;20185;-75
2022/01/27 06:58:43;;;;;;;19.60;8.65;;;3.40;99.90;;;;;;6758275;88;20194;-74
2022/01/27 07:08:44;;;;;;;22.30;8.60;;;4.00;99.90;;;;;;6760932;88;20188;-75
2022/01/27 07:18:44;;;;;;;17.92;8.35;;;4.60;99.90;;;;;;6761468;87;20262;-76
2022/01/27 07:28:45;;;;;;;19.25;8.35;;;4.80;99.90;;;;;;6758222;88;20180;-75
2022/01/27 07:38:46;;;;;;;18.62;6.55;;;4.90;99.90;;;;;;6753173;87;20982;-75
2022/01/27 07:48:46;;;;;;;19.25;7.53;;;4.70;99.90;;;;;;6756814;87;20183;-75
2022/01/27 07:58:47;;;;;;;19.70;8.23;;;4.40;99.90;;;;;;6759191;88;20195;-76
2022/01/27 08:08:49;;;;;;;19.77;8.27;;;4.30;99.90;;;;;;6761452;88;20188;-76
2022/01/27 08:18:49;;;;;;;20.20;8.25;;;4.10;99.90;;;;;;6762146;87;20183;-75
2022/01/27 08:28:57;;;;;;;17.02;8.02;;;4.20;99.90;;;;;;6754257;88;20253;-76
2022/01/27 08:38:58;;;;;;;16.98;7.35;;;4.50;99.90;;;;;;6755951;88;20266;-76
2022/01/27 08:48:58;;;;;;;16.42;7.35;;;4.90;99.90;;;;;;6756588;88;20326;-76
2022/01/27 08:58:59;;;;;;;15.73;7.25;;;5.20;99.90;;;;;;6747556;88;20257;-76
2022/01/27 09:09:00;;;;;;;17.87;7.50;;;5.30;99.90;;;;;;6746782;87;20309;-75
2022/01/27 09:19:02;;;;;;;16.98;7.53;;;5.60;99.90;;;;;;6761774;88;20184;-75
2022/01/27 09:29:02;;;;;;;17.50;6.80;;;5.70;99.90;;;;;;6748317;88;20977;-75
2022/01/27 09:39:04;;;;;;;17.02;6.85;;;5.80;99.90;;;;;;6749599;87;20228;-75
2022/01/27 09:49:13;;;;;;;15.18;6.85;;;5.80;99.90;;;;;;6749070;88;20593;-75
2022/01/27 09:59:14;;;;;;;21.52;7.57;;;6.10;99.90;;;;;;6749449;88;20286;-75
2022/01/27 10:09:20;;;;;;;19.92;8.48;;;6.20;99.90;;;;;;6749791;88;20295;-75
2022/01/27 10:19:22;;;;;;;;;;;5.80;99.90;;;;;;6750397;87;20195;-74
2022/01/27 10:29:34;;;;;;;26.98;8.68;;;5.80;99.90;;;;;;6752493;88;20056;-75
2022/01/27 10:39:34;;;;;;;23.77;8.63;;;5.90;99.90;;;;;;6752349;88;20347;-76
2022/01/27 10:49:42;;;;;;;19.87;7.30;;;5.70;99.90;;;;;;6752679;87;20176;-76
2022/01/27 10:59:43;;;;;;;16.42;6.47;;;5.70;99.90;;;;;;6747704;87;20268;-76
2022/01/27 11:09:44;;;;;;;18.08;7.05;;;5.80;99.90;;;;;;6752826;87;20716;-75
2022/01/27 11:29:57;;;;;;;10.32;4.65;;;5.90;99.90;;;;;;6756348;88;20227;-75
2022/01/27 11:40:06;;;;;;;9.13;4.20;;;6.00;99.90;;;;;;6754203;87;20314;-76
2022/01/27 12:00:14;;;;;;;6.70;3.08;;;6.20;99.90;;;;;;6752204;88;20237;-76
2022/01/27 12:10:46;;;;;;;4.18;2.05;;;6.20;99.90;;;;;;6759944;87;20302;-77
2022/01/27 12:20:47;;;;;;;4.00;1.90;;;6.40;99.90;;;;;;6767814;88;20194;-76
2022/01/27 12:30:55;;;;;;;3.45;1.50;;;6.50;99.90;;;;;;6764350;88;20246;-77
2022/01/27 12:40:56;;;;;;;1.67;0.75;;;6.50;99.90;;;;;;6768583;87;20173;-76
2022/01/27 12:51:01;;;;;;;2.42;0.93;;;6.60;99.90;;;;;;6763140;87;20284;-75
2022/01/27 13:01:02;;;;;;;3.47;0.70;;;6.80;99.90;;;;;;6757189;87;20204;-75
2022/01/27 13:11:09;;;;;;;1.15;0.50;;;6.80;99.90;;;;;;6757224;87;20275;-75
2022/01/27 13:21:19;;;;;;;1.70;0.40;;;6.90;99.90;;;;;;6758744;88;20206;-76
2022/01/27 13:31:20;;;;;;;1.00;0.40;;;6.90;99.90;;;;;;6758792;88;20184;-75
2022/01/27 13:41:20;;;;;;;2.60;0.47;;;7.00;99.90;;;;;;6757577;87;20204;-75
2022/01/27 13:51:22;;;;;;;0.82;0.30;;;7.00;99.90;;;;;;6757356;87;21034;-74
2022/01/27 14:01:23;;;;;;;1.02;0.30;;;7.10;99.90;;;;;;6761443;87;20794;-75
2022/01/27 14:11:34;;;;;;;1.85;0.52;;;6.90;99.90;;;;;;6759216;87;20222;-75
2022/01/27 14:21:41;;;;;;;2.83;0.45;;;6.80;99.90;;;;;;6759017;87;20200;-75
2022/01/27 14:31:47;;;;;;;2.47;0.50;;;6.70;99.90;;;;;;6756070;87;20275;-75
2022/01/27 14:41:48;;;;;;;0.90;0.30;;;6.80;99.90;;;;;;6752525;87;20192;-75
2022/01/27 14:51:50;;;;;;;1.10;0.62;;;7.00;99.90;;;;;;6756292;87;20213;-74
2022/01/27 15:01:51;;;;;;;1.23;0.50;;;7.10;99.90;;;;;;6758463;88;20366;-74
2022/01/27 15:11:51;;;;;;;2.08;0.65;;;7.10;99.90;;;;;;6766381;87;20222;-75
2022/01/27 15:21:52;;;;;;;2.90;0.75;;;7.20;99.90;;;;;;6757473;88;20221;-76
2022/01/27 15:31:52;;;;;;;2.80;0.80;;;7.20;99.90;;;;;;6757280;88;20621;-75
2022/01/27 15:41:54;;;;;;;1.45;0.80;;;7.20;99.90;;;;;;6756058;87;20254;-75
2022/01/27 15:51:54;;;;;;;3.35;0.90;;;7.20;99.90;;;;;;6756789;87;20192;-75
2022/01/27 16:01:55;;;;;;;2.42;1.10;;;7.20;99.90;;;;;;6757339;88;20197;-76
2022/01/27 16:11:56;;;;;;;2.60;1.40;;;7.30;99.90;;;;;;6755578;87;20689;-74
2022/01/27 16:21:56;;;;;;;2.85;1.30;;;7.20;99.90;;;;;;6763618;88;20350;-76
2022/01/27 16:31:57;;;;;;;2.47;1.27;;;7.00;99.90;;;;;;6751494;88;20195;-74
2022/01/27 16:41:58;;;;;;;5.18;1.98;;;7.10;99.90;;;;;;6753954;88;20238;-75
2022/01/27 16:51:58;;;;;;;4.87;2.08;;;7.10;99.90;;;;;;6749834;87;20321;-74
2022/01/27 17:01:59;;;;;;;4.37;2.70;;;7.00;99.90;;;;;;6755538;87;20194;-75
2022/01/27 17:12:00;;;;;;;6.95;4.05;;;7.00;99.90;;;;;;6754569;88;20201;-74
2022/01/27 17:22:02;;;;;;;12.05;6.60;;;7.00;99.90;;;;;;6755886;88;20189;-76
2022/01/27 17:32:02;;;;;;;14.75;6.85;;;7.20;99.90;;;;;;6757068;88;20701;-75
2022/01/27 17:42:04;;;;;;;15.05;8.02;;;7.30;99.90;;;;;;6756714;88;20244;-76
2022/01/27 17:52:06;;;;;;;16.58;8.73;;;7.40;99.90;;;;;;6753274;88;20172;-76
2022/01/27 18:12:11;;;;;;;16.40;9.35;;;7.60;99.90;;;;;;6729810;88;20181;-77
2022/01/27 18:22:13;;;;;;;21.17;11.63;;;7.60;99.90;;;;;;6729728;88;20216;-79
2022/01/27 18:32:14;;;;;;;24.98;12.25;;;7.70;99.90;;;;;;6726294;88;20656;-78
2022/01/27 18:42:14;;;;;;;20.02;11.73;;;7.50;99.90;;;;;;6726454;88;20495;-77
2022/01/27 18:52:15;;;;;;;22.77;12.23;;;7.60;99.90;;;;;;6733769;88;20320;-75
2022/01/27 19:02:16;;;;;;;24.90;12.40;;;7.60;99.90;;;;;;6736008;87;20215;-76
2022/01/27 19:12:16;;;;;;;19.50;10.18;;;7.50;99.90;;;;;;6731326;88;20348;-76
2022/01/27 19:22:17;;;;;;;22.35;10.68;;;7.40;99.90;;;;;;6735325;88;20202;-76
2022/01/27 19:32:19;;;;;;;21.00;10.27;;;7.60;99.90;;;;;;6728805;88;20287;-76
2022/01/27 19:42:19;;;;;;;19.40;8.85;;;7.60;99.90;;;;;;6727212;88;20253;-78
2022/01/27 19:52:24;;;;;;;14.93;6.72;;;7.50;99.90;;;;;;6729652;88;20239;-76
2022/01/27 20:02:24;;;;;;;12.98;5.45;;;7.40;99.90;;;;;;6727459;88;20248;-76
2022/01/27 20:12:25;;;;;;;13.33;4.10;;;7.40;99.90;;;;;;6731423;88;20176;-78
2022/01/27 20:22:26;;;;;;;7.05;2.97;;;7.10;99.90;;;;;;6731145;88;20577;-76
2022/01/27 20:32:26;;;;;;;10.73;3.42;;;6.90;99.90;;;;;;6729959;88;20662;-76
2022/01/27 20:42:28;;;;;;;10.52;3.45;;;6.70;99.90;;;;;;6728886;88;20281;-76
2022/01/27 20:52:29;;;;;;;9.77;2.35;;;6.60;99.90;;;;;;6738540;88;20567;-76
2022/01/27 21:02:32;;;;;;;5.87;2.23;;;6.50;99.90;;;;;;6735931;88;20509;-76
2022/01/27 21:12:33;;;;;;;13.65;2.70;;;6.60;99.90;;;;;;6727488;88;20487;-76
2022/01/27 21:22:33;;;;;;;11.77;2.83;;;6.60;99.90;;;;;;6733330;88;20215;-76
2022/01/27 21:32:35;;;;;;;11.15;2.62;;;6.50;99.90;;;;;;6722320;88;20293;-76
2022/01/27 21:42:35;;;;;;;10.50;2.72;;;6.60;99.90;;;;;;6730609;88;20236;-77
2022/01/27 21:52:36;;;;;;;9.38;2.50;;;6.70;99.90;;;;;;6722349;88;20652;-77
2022/01/27 22:02:37;;;;;;;9.93;2.90;;;6.60;99.90;;;;;;6730175;88;20513;-76
2022/01/27 22:12:38;;;;;;;12.77;2.60;;;6.60;99.90;;;;;;6726177;88;20189;-76
2022/01/27 22:22:41;;;;;;;10.93;2.50;;;6.40;99.90;;;;;;6730740;88;20329;-77
2022/01/27 22:32:42;;;;;;;10.73;2.50;;;6.20;99.90;;;;;;6727799;88;20214;-77
2022/01/27 22:42:43;;;;;;;6.47;2.08;;;6.10;99.90;;;;;;6732160;88;20192;-78
2022/01/27 22:52:44;;;;;;;14.70;2.33;;;6.00;99.90;;;;;;6725515;88;20225;-77
2022/01/27 23:02:45;;;;;;;7.87;1.60;;;5.90;99.90;;;;;;6732792;88;20363;-75
2022/01/27 23:13:00;;;;;;;5.85;1.25;;;5.90;99.90;;;;;;6730183;88;20192;-79
2022/01/27 23:23:18;;;;;;;8.55;1.33;;;5.80;99.90;;;;;;6736548;88;20259;-76
2022/01/27 23:33:20;;;;;;;5.78;1.02;;;5.70;99.90;;;;;;6728110;88;20242;-76
2022/01/27 23:43:42;;;;;;;11.60;1.70;;;5.70;99.90;;;;;;6733686;88;20228;-76
2022/01/27 23:54:03;;;;;;;9.00;1.40;;;5.70;99.90;;;;;;6728832;88;20184;-76
